Time;durP1;ratioP1;P1;durP2;ratioP2;P2;SDS_P1;SDS_P2;PMS_P1;PMS_P2;Temp;Humidity;BMP_temperature;BMP_pressure;BME280_temperature;BME280_humidity;BME280_pressure;Samples;Min_cycle;Max_cycle;Signal;HPM_P1;HPM_P2
2023/12/11 00:00:46;;;;;;;42.58;6.50;;;;;;;9.70;100.00;99900.03;6312753;22;20010;-89
2023/12/11 00:03:15;;;;;;;37.58;4.95;;;;;;;9.59;100.00;99885.97;6312839;22;20021;-89
2023/12/11 00:05:41;;;;;;;33.25;5.03;;;;;;;9.68;100.00;99897.41;6339618;22;20329;-88
2023/12/11 00:08:07;;;;;;;27.08;5.50;;;;;;;9.63;100.00;99893.88;6312532;22;20079;-89
2023/12/11 00:10:32;;;;;;;31.50;5.13;;;;;;;9.59;100.00;99891.25;6339642;22;20413;-89
2023/12/11 00:12:58;;;;;;;37.20;5.25;;;;;;;9.40;100.00;99871.91;6312110;22;20115;-90
2023/12/11 00:15:23;;;;;;;33.28;5.60;;;;;;;9.50;100.00;99879.81;6312274;22;20366;-88
2023/12/11 00:17:48;;;;;;;29.00;4.95;;;;;;;9.50;100.00;99885.09;6339296;22;20002;-89
2023/12/11 00:20:14;;;;;;;33.45;5.93;;;;;;;9.13;100.00;99836.78;6339532;22;20448;-89
2023/12/11 00:22:39;;;;;;;34.95;5.07;;;;;;;9.38;100.00;99885.13;6311800;22;20067;-89
2023/12/11 00:25:05;;;;;;;33.90;5.15;;;;;;;9.30;100.00;99870.19;6339170;22;20013;-89
2023/12/11 00:27:33;;;;;;;35.70;5.13;;;;;;;9.41;100.00;99897.41;6286125;22;20322;-89
2023/12/11 00:29:59;;;;;;;34.35;5.53;;;;;;;9.41;100.00;99884.22;6260914;22;20014;-89
2023/12/11 00:32:24;;;;;;;38.88;5.55;;;;;;;9.43;100.00;99880.72;6339525;22;20003;-88
2023/12/11 00:34:50;;;;;;;33.47;5.28;;;;;;;9.38;100.00;99874.56;6260441;22;20015;-88
2023/12/11 00:37:16;;;;;;;26.95;4.90;;;;;;;9.45;100.00;99880.72;6339280;22;20010;-88
2023/12/11 00:39:44;;;;;;;42.15;4.97;;;;;;;9.32;100.00;99868.41;6339508;22;20015;-89
2023/12/11 00:42:09;;;;;;;33.95;6.07;;;;;;;9.27;100.00;99857.88;6339182;22;20003;-89
2023/12/11 00:44:38;;;;;;;32.85;5.38;;;;;;;9.41;100.00;99871.91;6286138;22;20086;-89
2023/12/11 00:47:07;;;;;;;34.05;5.75;;;;;;;9.40;100.00;99877.19;6339362;22;20006;-88
2023/12/11 00:49:32;;;;;;;36.78;5.65;;;;;;;9.33;100.00;99867.53;6312385;22;20010;-90
2023/12/11 00:51:57;;;;;;;34.28;5.60;;;;;;;9.26;100.00;99846.44;6311419;22;20073;-89
2023/12/11 00:54:23;;;;;;;38.40;4.88;;;;;;;9.27;100.00;99850.81;6339383;22;20417;-89
2023/12/11 00:56:49;;;;;;;34.80;5.55;;;;;;;9.39;100.00;99875.44;6311658;22;20444;-89
2023/12/11 00:59:14;;;;;;;32.97;5.15;;;;;;;9.39;100.00;99876.31;6306035;22;20015;-89
2023/12/11 01:01:40;;;;;;;36.50;5.07;;;;;;;9.39;100.00;99859.63;6308078;22;20410;-89
2023/12/11 01:04:05;;;;;;;36.40;5.55;;;;;;;9.39;100.00;99860.50;6280577;22;20337;-88
2023/12/11 01:06:30;;;;;;;31.25;5.63;;;;;;;9.40;100.00;99858.75;6307527;22;20003;-89
2023/12/11 01:08:56;;;;;;;35.78;5.47;;;;;;;9.44;100.00;99863.13;6306593;22;20015;-89
2023/12/11 01:11:24;;;;;;;39.42;5.47;;;;;;;9.45;100.00;99870.16;6308109;22;20018;-90
2023/12/11 01:13:50;;;;;;;30.92;5.20;;;;;;;9.39;100.00;99855.22;6307678;22;20065;-89
2023/12/11 01:16:15;;;;;;;43.30;5.95;;;;;;;9.42;100.00;99855.25;6306454;22;20007;-89
2023/12/11 01:18:41;;;;;;;46.78;6.30;;;;;;;9.34;100.00;99828.00;6306206;22;20349;-88
2023/12/11 01:21:07;;;;;;;35.50;5.25;;;;;;;9.40;100.00;99829.75;6306499;22;20010;-88
2023/12/11 01:23:33;;;;;;;32.88;5.40;;;;;;;9.49;100.00;99842.91;6307465;22;20007;-90
2023/12/11 01:25:58;;;;;;;30.83;4.85;;;;;;;9.42;100.00;99830.59;6306095;22;20007;-89
2023/12/11 01:28:24;;;;;;;38.45;5.55;;;;;;;9.52;100.00;99842.91;6280570;22;20004;-89
2023/12/11 01:30:49;;;;;;;31.15;5.07;;;;;;;9.49;100.00;99830.59;6306434;22;20311;-88
2023/12/11 01:33:15;;;;;;;32.53;5.10;;;;;;;9.53;100.00;99837.63;6280398;22;20481;-88
2023/12/11 01:35:40;;;;;;;43.53;5.97;;;;;;;9.60;100.00;99837.63;6308021;22;20007;-88
2023/12/11 01:38:06;;;;;;;27.52;4.93;;;;;;;9.64;100.00;99835.00;6306341;22;20017;-88
2023/12/11 01:40:31;;;;;;;37.88;5.13;;;;;;;9.47;100.00;99799.84;6306826;22;20095;-88
2023/12/11 01:43:11;;;;;;;47.45;5.57;;;;;;;9.63;100.00;99832.34;6306603;22;20090;-89
2023/12/11 01:45:37;;;;;;;33.72;5.22;;;;;;;9.64;100.00;99827.06;6308099;22;20008;-88
2023/12/11 01:48:03;;;;;;;45.17;5.45;;;;;;;9.65;100.00;99828.81;6306707;22;20017;-88
2023/12/11 01:50:28;;;;;;;28.23;5.38;;;;;;;9.67;100.00;99828.81;6280690;22;20065;-89
2023/12/11 01:52:53;;;;;;;38.08;5.85;;;;;;;9.67;100.00;99821.78;6306757;22;20333;-88
2023/12/11 01:55:19;;;;;;;26.08;4.70;;;;;;;9.68;100.00;99826.19;6307018;22;20094;-89
2023/12/11 01:57:45;;;;;;;38.00;5.03;;;;;;;9.70;100.00;99818.25;6306627;22;20035;-88
2023/12/11 02:00:11;;;;;;;38.63;5.47;;;;;;;9.71;100.00;99815.59;6306659;22;20030;-89
2023/12/11 02:02:36;;;;;;;31.05;4.95;;;;;;;9.75;100.00;99806.81;6306740;22;20310;-89
2023/12/11 02:05:01;;;;;;;34.05;4.57;;;;;;;9.59;100.00;99777.84;6306829;22;20086;-88
2023/12/11 02:07:27;;;;;;;38.75;5.30;;;;;;;9.65;100.00;99789.25;6281492;22;20010;-90
2023/12/11 02:09:52;;;;;;;32.38;4.53;;;;;;;9.78;100.00;99798.91;6307195;22;20394;-88
2023/12/11 02:12:18;;;;;;;24.80;4.00;;;;;;;9.75;100.00;99788.34;6306881;22;20016;-89
2023/12/11 02:14:43;;;;;;;32.08;4.95;;;;;;;9.76;100.00;99795.41;6308503;22;20030;-89
2023/12/11 02:17:09;;;;;;;28.17;4.80;;;;;;;9.83;100.00;99779.53;6307502;22;20007;-90
2023/12/11 02:19:35;;;;;;;32.00;4.75;;;;;;;9.75;100.00;99775.16;6308336;22;20007;-89
2023/12/11 02:22:03;;;;;;;22.83;4.25;;;;;;;9.85;100.00;99777.75;6306845;22;20004;-88
2023/12/11 02:24:33;;;;;;;31.80;4.90;;;;;;;9.90;100.00;99782.16;6306551;22;20004;-89
2023/12/11 02:27:00;;;;;;;32.28;4.60;;;;;;;9.95;100.00;99772.44;6307745;22;20003;-88
2023/12/11 02:29:25;;;;;;;31.95;5.18;;;;;;;9.89;100.00;99774.22;6308432;22;20003;-88
2023/12/11 02:31:50;;;;;;;36.85;5.35;;;;;;;9.93;100.00;99771.56;6307909;22;20003;-89
2023/12/11 02:34:16;;;;;;;32.20;4.85;;;;;;;9.96;100.00;99784.75;6306007;22;20061;-88
2023/12/11 02:36:43;;;;;;;31.50;4.82;;;;;;;9.80;100.00;99759.31;6307547;22;20011;-89
2023/12/11 02:39:09;;;;;;;29.23;4.85;;;;;;;9.93;100.00;99779.47;6307532;22;20011;-88
2023/12/11 02:41:35;;;;;;;24.40;4.57;;;;;;;9.95;100.00;99780.38;6306428;22;20011;-88
2023/12/11 02:44:00;;;;;;;25.95;4.22;;;;;;;9.85;100.00;99761.91;6308075;22;20414;-88
2023/12/11 02:46:25;;;;;;;35.20;5.00;;;;;;;9.91;100.00;99756.63;6308145;22;19999;-88
2023/12/11 02:48:51;;;;;;;38.33;4.53;;;;;;;9.80;100.00;99740.84;6307558;22;20003;-88
2023/12/11 02:51:16;;;;;;;30.40;4.80;;;;;;;9.92;100.00;99767.19;6305773;22;20465;-87
2023/12/11 02:53:42;;;;;;;36.97;5.03;;;;;;;9.86;100.00;99753.16;6308686;22;20015;-87
2023/12/11 02:56:08;;;;;;;34.75;5.60;;;;;;;9.90;100.00;99760.16;6309002;22;20004;-89
2023/12/11 02:58:33;;;;;;;25.30;4.40;;;;;;;9.85;100.00;99744.34;6311375;22;20056;-90
2023/12/11 03:00:59;;;;;;;27.00;4.68;;;;;;;9.70;100.00;99720.66;6313415;22;20006;-89
2023/12/11 03:03:25;;;;;;;24.42;4.72;;;;;;;9.72;100.00;99713.59;6340598;22;20079;-88
2023/12/11 03:05:51;;;;;;;25.08;4.25;;;;;;;9.84;100.00;99731.16;6314023;22;20006;-89
2023/12/11 03:08:16;;;;;;;22.67;4.15;;;;;;;9.80;100.00;99722.38;6314207;22;20031;-88
2023/12/11 03:10:41;;;;;;;17.58;3.72;;;;;;;9.74;100.00;99723.28;6341655;22;20007;-88
2023/12/11 03:13:07;;;;;;;31.38;5.00;;;;;;;9.55;100.00;99692.59;6313269;22;20010;-90
2023/12/11 03:15:32;;;;;;;25.73;4.75;;;;;;;9.62;100.00;99704.00;6314734;22;20421;-88
2023/12/11 03:17:59;;;;;;;28.50;4.50;;;;;;;9.65;100.00;99718.03;6341384;22;20007;-88
2023/12/11 03:20:25;;;;;;;28.00;4.68;;;;;;;9.59;100.00;99696.06;6341557;22;20052;-88
2023/12/11 03:22:50;;;;;;;33.13;5.50;;;;;;;9.64;100.00;99718.94;6313202;22;20010;-88
2023/12/11 03:25:15;;;;;;;28.85;4.70;;;;;;;9.58;100.00;99702.25;6340422;22;20087;-88
2023/12/11 03:27:41;;;;;;;24.73;4.78;;;;;;;9.59;100.00;99699.59;6312909;22;20021;-88
2023/12/11 03:30:07;;;;;;;25.10;4.28;;;;;;;9.57;100.00;99700.50;6287659;22;20476;-87
2023/12/11 03:32:32;;;;;;;21.83;3.90;;;;;;;9.57;100.00;99697.84;6340398;22;20465;-89
2023/12/11 03:34:58;;;;;;;28.30;4.57;;;;;;;9.46;100.00;99671.50;6341899;22;20039;-87
2023/12/11 03:37:23;;;;;;;27.83;4.40;;;;;;;9.51;100.00;99691.72;6313214;22;20002;-88
2023/12/11 03:39:49;;;;;;;27.48;4.40;;;;;;;9.54;100.00;99678.50;6339939;22;20391;-89
2023/12/11 03:42:14;;;;;;;29.13;4.45;;;;;;;9.53;100.00;99679.41;6313190;22;20007;-91
2023/12/11 03:44:40;;;;;;;23.23;4.43;;;;;;;9.63;100.00;99701.31;6313011;22;20010;-89
2023/12/11 03:47:05;;;;;;;21.17;4.00;;;;;;;9.46;100.00;99671.50;6340483;22;20030;-89
2023/12/11 03:49:30;;;;;;;24.33;3.83;;;;;;;9.55;100.00;99676.78;6340496;22;20097;-89
2023/12/11 03:51:56;;;;;;;21.30;4.05;;;;;;;9.65;100.00;99698.72;6312612;22;20007;-90
2023/12/11 03:54:21;;;;;;;25.10;3.85;;;;;;;9.64;100.00;99700.47;6312778;22;20017;-89
2023/12/11 03:56:49;;;;;;;28.58;4.50;;;;;;;9.63;100.00;99703.09;6312819;22;20092;-89
2023/12/11 03:59:15;;;;;;;27.02;4.55;;;;;;;9.60;100.00;99697.84;6312746;22;20018;-89
2023/12/11 04:01:40;;;;;;;22.85;4.15;;;;;;;9.58;100.00;99703.13;6340621;22;20007;-89
2023/12/11 04:04:05;;;;;;;19.10;3.70;;;;;;;9.58;100.00;99695.19;6312393;22;20010;-89
2023/12/11 04:06:31;;;;;;;23.52;3.78;;;;;;;9.60;100.00;99703.13;6286868;22;20002;-88
2023/12/11 04:08:56;;;;;;;18.63;3.75;;;;;;;9.61;100.00;99705.75;6339819;22;20074;-88
2023/12/11 04:11:22;;;;;;;27.38;4.88;;;;;;;9.61;100.00;99689.94;6340542;22;20094;-89
2023/12/11 04:13:47;;;;;;;27.85;3.97;;;;;;;9.60;100.00;99693.44;6339968;22;20007;-89
2023/12/11 04:16:13;;;;;;;24.58;3.92;;;;;;;9.51;100.00;99694.38;6340077;22;20010;-88
2023/12/11 04:18:39;;;;;;;21.27;3.40;;;;;;;9.54;100.00;99706.66;6312708;22;20426;-89
2023/12/11 04:21:05;;;;;;;27.73;4.65;;;;;;;9.49;100.00;99695.25;6312561;22;20017;-88
2023/12/11 04:23:30;;;;;;;23.98;4.13;;;;;;;9.51;100.00;99690.84;6312169;22;20018;-89
2023/12/11 04:25:59;;;;;;;18.55;3.90;;;;;;;9.60;100.00;99696.09;6340112;22;20317;-89
2023/12/11 04:28:25;;;;;;;18.02;3.83;;;;;;;9.62;100.00;99688.16;6340152;22;20003;-89
2023/12/11 04:30:51;;;;;;;28.02;4.45;;;;;;;9.52;100.00;99682.06;6312559;22;20029;-89
2023/12/11 04:33:17;;;;;;;21.02;3.80;;;;;;;9.59;100.00;99686.41;6339694;22;20334;-88
2023/12/11 04:35:42;;;;;;;23.42;4.85;;;;;;;9.47;100.00;99673.28;6338878;22;20030;-88
2023/12/11 04:38:07;;;;;;;23.08;4.47;;;;;;;9.52;100.00;99687.31;6339428;22;20408;-89
2023/12/11 04:40:33;;;;;;;29.63;4.85;;;;;;;9.33;100.00;99667.16;6311658;22;20017;-89
2023/12/11 04:42:58;;;;;;;27.35;4.38;;;;;;;9.46;100.00;99679.41;6339313;22;20347;-88
2023/12/11 04:45:24;;;;;;;23.73;4.95;;;;;;;9.35;100.00;99662.78;6339196;22;20086;-88
2023/12/11 04:47:49;;;;;;;21.17;4.03;;;;;;;9.34;100.00;99643.44;6339071;22;20282;-88
2023/12/11 04:50:14;;;;;;;27.90;4.50;;;;;;;9.39;100.00;99662.75;6339388;22;20439;-89
2023/12/11 04:52:40;;;;;;;27.10;4.35;;;;;;;9.26;100.00;99650.50;6286005;22;20051;-88
2023/12/11 04:55:06;;;;;;;27.10;3.88;;;;;;;9.37;100.00;99661.88;6285771;22;20007;-87
2023/12/11 04:57:31;;;;;;;20.98;4.05;;;;;;;9.24;100.00;99639.94;6311249;22;20337;-88
2023/12/11 04:59:56;;;;;;;31.00;4.55;;;;;;;9.30;100.00;99654.88;6339179;22;20010;-89
2023/12/11 05:02:22;;;;;;;22.98;3.58;;;;;;;9.37;100.00;99667.16;6285849;22;20377;-89
2023/12/11 05:04:47;;;;;;;23.88;3.67;;;;;;;9.03;100.00;99617.16;6339073;22;20007;-90
2023/12/11 05:07:13;;;;;;;26.48;4.40;;;;;;;9.26;100.00;99646.09;6311635;22;20010;-89
2023/12/11 05:09:38;;;;;;;25.33;4.03;;;;;;;9.26;100.00;99645.25;6338843;22;20003;-89
2023/12/11 05:12:04;;;;;;;21.13;4.20;;;;;;;9.24;100.00;99636.44;6339152;22;20034;-89
2023/12/11 05:14:29;;;;;;;24.45;4.53;;;;;;;9.24;100.00;99660.16;6311507;22;20010;-89
2023/12/11 05:16:55;;;;;;;27.00;4.78;;;;;;;9.38;100.00;99687.38;6311185;22;20425;-89
2023/12/11 05:19:20;;;;;;;22.13;4.03;;;;;;;9.35;100.00;99681.22;6338778;22;20018;-91
2023/12/11 05:21:46;;;;;;;23.67;3.90;;;;;;;9.30;100.00;99665.44;6311298;22;20089;-90
2023/12/11 05:24:14;;;;;;;25.55;4.43;;;;;;;9.34;100.00;99680.38;6338957;22;19999;-91
2023/12/11 05:26:40;;;;;;;29.67;4.35;;;;;;;9.31;100.00;99675.09;6339068;22;20009;-91
2023/12/11 05:29:08;;;;;;;24.27;4.68;;;;;;;9.37;100.00;99679.44;6338721;22;20007;-90
2023/12/11 05:31:33;;;;;;;27.08;4.47;;;;;;;9.24;100.00;99663.66;6311030;22;20022;-90
2023/12/11 05:34:02;;;;;;;27.85;4.13;;;;;;;9.35;100.00;99681.22;6311459;22;20007;-90
2023/12/11 05:36:27;;;;;;;26.58;3.92;;;;;;;9.35;100.00;99691.78;6310974;22;20362;-90
2023/12/11 05:38:53;;;;;;;25.23;4.35;;;;;;;9.06;100.00;99618.94;6339017;22;20082;-91
2023/12/11 05:41:20;;;;;;;19.77;3.78;;;;;;;9.29;100.00;99655.75;6338989;22;20014;-91
2023/12/11 05:43:47;;;;;;;20.75;3.90;;;;;;;9.26;100.00;99661.06;6311470;22;20010;-91
2023/12/11 05:46:22;;;;;;;28.33;3.92;;;;;;;9.11;100.00;99618.91;6311119;22;20008;-91
2023/12/11 05:48:55;;;;;;;20.80;3.58;;;;;;;9.18;100.00;99621.53;6311267;22;20013;-90
2023/12/11 05:51:28;;;;;;;32.30;4.55;;;;;;;9.22;100.00;99619.78;6311069;22;20413;-91
2023/12/11 05:54:03;;;;;;;32.10;4.82;;;;;;;9.13;100.00;99607.50;6338612;22;20090;-91
2023/12/11 05:56:43;;;;;;;26.20;4.03;;;;;;;9.14;100.00;99603.97;6310764;22;20003;-91
2023/12/11 05:59:19;;;;;;;;;;;;;;;;;;;;;
2023/12/11 06:01:48;;;;;;;27.80;4.65;;;;;;;9.12;100.00;99599.59;6338717;22;20074;-91
2023/12/11 06:04:43;;;;;;;;;;;;;;;;;;;;;
2023/12/11 06:07:21;;;;;;;31.25;4.30;;;;;;;9.26;100.00;99616.25;6338550;22;20082;-93
2023/12/11 06:09:49;;;;;;;21.00;4.30;;;;;;;9.58;100.00;99658.28;6311186;22;20084;-92
2023/12/11 06:12:28;;;;;;;27.77;4.22;;;;;;;9.42;100.00;99639.03;6338752;22;20345;-92
2023/12/11 06:15:28;;;;;;;21.17;4.05;;;;;;;9.53;100.00;99665.34;6311216;22;20010;-92
2023/12/11 06:18:03;;;;;;;23.20;3.88;;;;;;;9.40;100.00;99634.63;6317504;22;20014;-92
2023/12/11 06:21:04;;;;;;;;;;;;;;;;;;;;;
2023/12/11 06:23:47;;;;;;;25.10;4.60;;;;;;;9.11;100.00;99611.00;6313105;22;20389;-92
2023/12/11 06:26:44;;;;;;;;;;;;;;;;;;;;;
2023/12/11 06:29:35;;;;;;;26.80;4.30;;;;;;;9.06;100.00;99600.50;6295120;22;20089;-92
2023/12/11 06:32:13;;;;;;;;;;;;;;;;;;;;;
2023/12/11 06:34:50;;;;;;;23.27;4.55;;;;;;;9.22;100.00;99631.19;6340118;22;20485;-93
2023/12/11 06:37:29;;;;;;;29.60;4.45;;;;;;;9.22;100.00;99631.19;6289201;22;20432;-93
2023/12/11 06:40:02;;;;;;;32.47;4.72;;;;;;;8.96;100.00;99589.09;6314719;22;20019;-94
2023/12/11 06:42:37;;;;;;;19.00;4.07;;;;;;;9.26;100.00;99637.31;6340587;22;20003;-94
2023/12/11 06:45:18;;;;;;;;;;;;;;;;;;;;;
2023/12/11 06:47:46;;;;;;;21.80;4.10;;;;;;;9.07;100.00;99620.69;6340136;22;20081;-92
2023/12/11 06:50:19;;;;;;;22.85;4.00;;;;;;;9.09;100.00;99629.47;6313697;22;20003;-93
2023/12/11 06:52:54;;;;;;;24.40;4.43;;;;;;;9.14;100.00;99625.06;6289390;22;20010;-94
2023/12/11 06:55:39;;;;;;;20.58;3.67;;;;;;;9.33;100.00;99660.13;6351650;22;20009;-93
2023/12/11 06:58:07;;;;;;;24.52;3.78;;;;;;;9.42;100.00;99675.03;6322704;22;20015;-94
2023/12/11 07:01:01;;;;;;;21.17;3.97;;;;;;;9.02;100.00;99609.28;6286606;22;20126;-94
2023/12/11 07:03:44;;;;;;;;;;;;;;;;;;;;;
2023/12/11 07:06:10;;;;;;;21.90;3.97;;;;;;;9.06;100.00;99621.56;6340520;22;20078;-91
2023/12/11 07:08:56;;;;;;;23.58;3.97;;;;;;;9.36;100.00;99664.53;6340027;22;20455;-92
2023/12/11 07:11:31;;;;;;;26.80;5.45;;;;;;;9.10;100.00;99633.84;6313133;22;20003;-93
2023/12/11 07:14:07;;;;;;;27.98;4.40;;;;;;;9.48;100.00;99701.41;6340297;22;20011;-92
2023/12/11 07:16:42;;;;;;;19.63;3.83;;;;;;;9.17;100.00;99642.63;6312623;22;20038;-90
2023/12/11 07:19:19;;;;;;;;;;;;;;;;;;;;;
2023/12/11 07:22:00;;;;;;;;;;;;;;;;;;;;;
2023/12/11 07:24:57;;;;;;;19.25;3.38;;;;;;;9.29;100.00;99687.38;6340152;22;20453;-91
2023/12/11 07:27:37;;;;;;;20.42;3.80;;;;;;;9.27;100.00;99708.47;6312800;22;20025;-92
2023/12/11 07:30:13;;;;;;;;;;;;;;;;;;;;;
2023/12/11 07:32:42;;;;;;;17.77;3.35;;;;;;;9.01;100.00;99647.94;6339878;22;20086;-90
2023/12/11 07:35:11;;;;;;;17.27;3.30;;;;;;;9.05;100.00;99648.81;6312196;22;20490;-92
2023/12/11 07:37:48;;;;;;;17.52;3.10;;;;;;;9.21;100.00;99687.44;6340214;22;20013;-92
2023/12/11 07:40:33;;;;;;;16.13;3.10;;;;;;;9.20;100.00;99687.41;6312593;22;20421;-92
2023/12/11 07:43:09;;;;;;;19.23;3.50;;;;;;;9.06;100.00;99678.66;6339647;22;20006;-92
2023/12/11 07:45:40;;;;;;;14.35;3.30;;;;;;;9.05;100.00;99667.25;6311954;22;20052;-95
2023/12/11 07:48:08;;;;;;;17.73;3.38;;;;;;;9.00;100.00;99675.16;6340034;22;19999;-92
2023/12/11 07:51:07;;;;;;;17.35;3.20;;;;;;;9.00;100.00;99672.53;6344444;22;20011;-95
2023/12/11 07:53:44;;;;;;;18.50;3.65;;;;;;;9.01;100.00;99679.53;6331963;22;20042;-93
2023/12/11 07:56:29;;;;;;;;;;;;;;;;;;;;;
2023/12/11 07:59:00;;;;;;;17.38;2.83;;;;;;;8.97;100.00;99684.81;6313955;22;20512;-93
2023/12/11 08:01:43;;;;;;;23.67;3.97;;;;;;;9.39;100.00;99783.16;6313780;22;20014;-94
2023/12/11 08:04:17;;;;;;;15.05;2.95;;;;;;;9.17;100.00;99738.38;6311959;22;20094;-94
2023/12/11 08:07:12;;;;;;;;;;;;;;;;;;;;;
2023/12/11 08:09:46;;;;;;;17.05;3.15;;;;;;;9.36;100.00;99773.50;6330042;22;20501;-93
2023/12/11 08:12:25;;;;;;;17.08;3.60;;;;;;;8.94;100.00;99713.81;6340144;22;20011;-92
2023/12/11 08:15:15;;;;;;;20.27;3.38;;;;;;;9.10;100.00;99744.53;6312269;22;20030;-95
2023/12/11 08:18:10;;;;;;;;;;;;;;;;;;;;;
2023/12/11 08:20:43;;;;;;;15.73;3.63;;;;;;;9.19;100.00;99757.69;6328015;22;20090;-90
2023/12/11 08:23:09;;;;;;;17.17;3.08;;;;;;;9.41;100.00;99799.84;6287396;22;20017;-89
2023/12/11 08:25:39;;;;;;;18.60;3.05;;;;;;;9.12;100.00;99741.88;6339503;22;20006;-89
2023/12/11 08:28:07;;;;;;;22.00;3.35;;;;;;;9.27;100.00;99792.84;6311312;22;20021;-90
2023/12/11 08:30:33;;;;;;;13.05;3.22;;;;;;;9.47;100.00;99816.56;6311051;22;20017;-92
2023/12/11 08:32:59;;;;;;;18.33;3.10;;;;;;;9.23;100.00;99795.47;6285822;22;20010;-90
2023/12/11 08:35:27;;;;;;;18.20;3.42;;;;;;;9.35;100.00;99827.09;6311650;22;20417;-88
2023/12/11 08:37:55;;;;;;;12.88;2.88;;;;;;;9.37;100.00;99833.25;6339311;22;20015;-91
2023/12/11 08:40:20;;;;;;;17.55;3.38;;;;;;;9.43;100.00;99856.97;6287673;22;20067;-91
2023/12/11 08:42:46;;;;;;;21.52;3.70;;;;;;;9.40;100.00;99859.63;6312586;22;20010;-92
2023/12/11 08:45:19;;;;;;;19.52;3.50;;;;;;;9.35;100.00;99848.19;6311589;22;20003;-92
2023/12/11 08:47:51;;;;;;;14.93;3.05;;;;;;;9.27;100.00;99855.22;6313541;22;20014;-92
2023/12/11 08:50:19;;;;;;;15.77;2.90;;;;;;;9.36;100.00;99881.59;6312862;22;20007;-92
2023/12/11 08:52:44;;;;;;;14.25;3.08;;;;;;;9.32;100.00;99882.47;6339265;22;20018;-90
2023/12/11 08:55:10;;;;;;;14.82;3.00;;;;;;;9.05;100.00;99838.53;6339916;22;20007;-92
2023/12/11 08:57:35;;;;;;;9.90;2.45;;;;;;;9.24;100.00;99864.00;6311909;22;20416;-91
2023/12/11 09:00:03;;;;;;;13.05;3.00;;;;;;;9.24;100.00;99869.28;6310825;22;20382;-90
2023/12/11 09:02:31;;;;;;;14.52;3.10;;;;;;;9.26;100.00;99896.53;6313268;22;20006;-92
2023/12/11 09:04:56;;;;;;;12.82;3.10;;;;;;;9.25;100.00;99894.78;6311503;22;20030;-92
2023/12/11 09:07:22;;;;;;;17.23;3.13;;;;;;;9.23;100.00;99899.16;6285234;22;20076;-92
2023/12/11 09:09:47;;;;;;;17.23;3.00;;;;;;;9.23;100.00;99907.06;6312067;22;20003;-91
2023/12/11 09:12:13;;;;;;;14.00;2.88;;;;;;;9.11;100.00;99898.25;6311063;22;20014;-92
2023/12/11 09:14:38;;;;;;;14.00;2.90;;;;;;;9.06;100.00;99887.72;6311268;22;20010;-91
2023/12/11 09:17:04;;;;;;;15.25;2.70;;;;;;;9.16;100.00;99915.81;6286683;22;20333;-91
2023/12/11 09:19:30;;;;;;;11.88;2.63;;;;;;;9.21;100.00;99937.81;6338859;22;20003;-90
2023/12/11 09:21:56;;;;;;;12.80;2.80;;;;;;;9.20;100.00;99935.16;6311474;22;20006;-90
2023/12/11 09:24:21;;;;;;;10.55;2.45;;;;;;;9.19;100.00;99934.28;6284886;22;20014;-93
2023/12/11 09:26:49;;;;;;;14.45;2.95;;;;;;;9.27;100.00;99951.00;6259754;22;20337;-93
2023/12/11 09:29:17;;;;;;;11.60;2.85;;;;;;;9.32;100.00;99955.41;6285263;22;20061;-92
2023/12/11 09:31:43;;;;;;;13.93;2.90;;;;;;;9.29;100.00;99948.34;6337800;22;20437;-94
2023/12/11 09:34:09;;;;;;;14.25;2.72;;;;;;;9.40;100.00;99964.22;6310350;22;20007;-93
2023/12/11 09:36:35;;;;;;;11.20;2.63;;;;;;;9.46;100.00;99975.66;6284458;22;20017;-94
2023/12/11 09:39:02;;;;;;;10.52;2.38;;;;;;;9.31;100.00;99943.97;6310792;22;20006;-93
2023/12/11 09:41:32;;;;;;;14.77;2.78;;;;;;;9.57;100.00;99980.91;6338867;22;20006;-93
2023/12/11 09:44:03;;;;;;;11.63;2.53;;;;;;;9.60;100.00;99980.94;6311010;22;20014;-93
2023/12/11 09:46:36;;;;;;;11.95;2.60;;;;;;;9.63;100.00;99975.63;6314984;22;19998;-93
2023/12/11 09:49:02;;;;;;;12.23;2.58;;;;;;;9.67;100.00;99995.00;6310865;22;20007;-92
2023/12/11 09:51:29;;;;;;;12.63;3.30;;;;;;;9.73;100.00;100002.94;6338357;22;20021;-92
2023/12/11 09:53:57;;;;;;;13.05;2.50;;;;;;;9.82;100.00;100007.31;6342855;22;20003;-92
2023/12/11 09:56:23;;;;;;;12.68;3.15;;;;;;;9.94;100.00;100010.84;6284427;22;20037;-93
2023/12/11 09:58:49;;;;;;;18.80;2.97;;;;;;;10.07;100.00;100014.38;6337921;22;20473;-93
2023/12/11 10:01:15;;;;;;;11.35;2.67;;;;;;;10.18;100.00;100022.25;6340895;22;20441;-92
2023/12/11 10:03:41;;;;;;;12.43;2.85;;;;;;;10.23;100.00;100026.63;6261557;22;20006;-92
2023/12/11 10:06:07;;;;;;;13.63;3.10;;;;;;;10.24;100.00;100028.47;6339606;22;20073;-92
2023/12/11 10:08:53;;;;;;;13.98;2.58;;;;;;;10.22;100.00;100030.16;6339820;22;20364;-92
2023/12/11 10:11:22;;;;;;;12.82;3.08;;;;;;;9.94;100.00;99992.38;6314222;22;20065;-92
2023/12/11 10:13:48;;;;;;;11.43;2.67;;;;;;;10.17;100.00;100036.34;6313649;22;20002;-93
2023/12/11 10:16:46;;;;;;;10.90;2.65;;;;;;;10.16;100.00;100053.94;6312323;22;20011;-92
2023/12/11 10:19:11;;;;;;;13.00;2.67;;;;;;;10.04;100.00;100031.06;6261769;22;20034;-93
2023/12/11 10:21:43;;;;;;;9.30;2.35;;;;;;;9.95;100.00;100027.56;6287367;22;20436;-92
2023/12/11 10:24:13;;;;;;;15.82;3.03;;;;;;;10.04;100.00;100054.81;6287451;22;20007;-92
2023/12/11 10:26:52;;;;;;;12.88;2.53;;;;;;;9.95;100.00;100038.13;6340038;22;20082;-92
2023/12/11 10:29:30;;;;;;;10.90;2.55;;;;;;;10.00;100.00;100055.69;6340064;22;20417;-92
2023/12/11 10:32:03;;;;;;;12.30;2.72;;;;;;;9.91;100.00;100054.81;6314465;22;20413;-91
2023/12/11 10:34:50;;;;;;;16.10;2.90;;;;;;;9.98;100.00;100083.00;6338293;22;20006;-91
2023/12/11 10:37:17;;;;;;;12.57;2.63;;;;;;;9.95;100.00;100072.41;6287768;22;20010;-90
2023/12/11 10:39:53;;;;;;;12.25;2.80;;;;;;;9.94;100.00;100083.88;6312303;22;20014;-91
2023/12/11 10:42:18;;;;;;;11.38;2.60;;;;;;;9.75;100.00;100057.44;6339545;22;20012;-91
2023/12/11 10:44:44;;;;;;;15.27;2.80;;;;;;;9.86;100.00;100083.84;6339776;22;20003;-91
2023/12/11 10:47:10;;;;;;;10.98;2.60;;;;;;;9.86;100.00;100097.03;6312186;22;20110;-91
2023/12/11 10:49:39;;;;;;;11.95;2.88;;;;;;;9.84;100.00;100104.06;6339819;22;20006;-91
2023/12/11 10:52:04;;;;;;;8.30;2.35;;;;;;;9.83;100.00;100111.97;6339312;22;20013;-90
2023/12/11 10:54:30;;;;;;;5.18;1.95;;;;;;;9.69;100.00;100112.84;6339746;22;20007;-92
2023/12/11 10:57:01;;;;;;;3.20;1.67;;;;;;;9.58;100.00;100121.59;6339541;22;20006;-91
2023/12/11 10:59:28;;;;;;;3.58;1.60;;;;;;;9.41;100.00;100117.13;6339299;22;20442;-91
2023/12/11 11:01:55;;;;;;;5.28;1.88;;;;;;;9.45;100.00;100118.03;6339701;22;20006;-92
2023/12/11 11:05:08;;;;;;;;;;;;;;;;;;;;;
2023/12/11 11:18:58;;;;;;;4.63;1.90;;;;;;;9.05;100.00;100159.16;6038273;23;20019;-96
2023/12/11 11:22:47;;;;;;;4.68;2.03;;;;;;;9.06;100.00;100169.69;6037786;23;20022;-95
2023/12/11 11:26:20;;;;;;;;;;;;;;;;;;;;;
2023/12/11 11:33:25;;;;;;;;;;;;;;;;;;;;;
2023/12/11 11:43:48;;;;;;;;;;;;;;;;;;;;;
2023/12/11 11:50:33;;;;;;;;;;;;;;;;;;;;;
2023/12/11 11:53:45;;;;;;;;;;;;;;;;;;;;;
2023/12/11 11:56:59;;;;;;;7.35;2.47;;;;;;;8.70;100.00;100133.47;6005645;23;20063;-95
2023/12/11 12:14:02;;;;;;;7.05;1.92;;;;;;;8.89;100.00;100198.56;5992977;24;20016;-92
2023/12/11 12:17:24;;;;;;;4.97;2.08;;;;;;;9.05;100.00;100238.22;5963884;23;20011;-95
2023/12/11 12:52:43;;;;;;;;;;;;;;;;;;;;;
2023/12/11 12:55:23;;;;;;;;;;;;;;;;;;;;;
2023/12/11 12:58:17;;;;;;;;;;;;;;;10.42;100.00;100237.97;6302061;22;20007;-93
2023/12/11 13:06:37;;;;;;;9.68;2.30;;;;;;;10.44;100.00;100180.72;6321637;22;20098;-93
2023/12/11 13:09:47;;;;;;;;;;;;;;;;;;;;;
2023/12/11 13:12:20;;;;;;;11.57;2.50;;;;;;;10.40;100.00;100171.03;6298247;22;20042;-92
2023/12/11 13:15:04;;;;;;;8.70;2.53;;;;;;;10.59;100.00;100215.09;6295250;22;20015;-92
2023/12/11 13:17:45;;;;;;;;;;;;;;;;;;;;;
2023/12/11 13:20:18;;;;;;;10.00;2.70;;;;;;;10.48;100.00;100167.50;6320118;22;20038;-94
2023/12/11 13:23:01;;;;;;;;;;;;;;;11.08;100.00;100241.47;6316798;22;20003;-93
2023/12/11 13:25:38;;;;;;;;;;;;;;;11.28;100.00;100252.03;6263857;22;20313;-92
2023/12/11 13:28:42;;;;;;;8.65;3.30;;;;;;;11.16;100.00;100255.56;6260002;22;19911;-91
2023/12/11 13:31:20;;;;;;;7.78;2.33;;;;;;;10.98;100.00;100253.84;6268884;22;20311;-94
2023/12/11 13:34:20;;;;;;;;;;;;;;;;;;;;;
2023/12/11 13:36:49;;;;;;;8.38;2.05;;;;;;;10.45;100.00;100212.44;6261182;22;20139;-91